createdAt,value
2023-05-01T00:00:15.495Z,7.10
2023-05-01T00:01:21.663Z,7.50
2023-05-01T00:02:24.699Z,7.13
2023-05-01T00:03:26.935Z,7.32
2023-05-01T00:04:29.927Z,7.50
2023-05-01T00:05:31.834Z,7.55
2023-05-01T00:06:34.626Z,7.20
2023-05-01T00:07:36.443Z,7.10
2023-05-01T00:08:39.278Z,7.30
2023-05-01T00:09:41.111Z,7.45
2023-05-01T00:10:45.222Z,7.82
2023-05-01T00:11:47.025Z,7.63
2023-05-01T00:12:49.768Z,7.40
2023-05-01T00:13:51.793Z,7.85
2023-05-01T00:14:55.219Z,8.10
2023-05-01T00:15:57.191Z,7.75
2023-05-01T00:17:00.009Z,7.78
2023-05-01T00:18:01.945Z,8.10
2023-05-01T00:19:05.022Z,8.00
2023-05-01T00:20:08.685Z,6.85
2023-05-01T00:21:11.537Z,7.22
2023-05-01T00:22:13.276Z,7.35
2023-05-01T00:23:15.995Z,6.40
2023-05-01T00:24:17.796Z,6.97
2023-05-01T00:25:20.530Z,6.88
2023-05-01T00:26:27.015Z,6.78
2023-05-01T00:27:29.959Z,6.28
2023-05-01T00:28:32.621Z,7.25
2023-05-01T00:29:35.360Z,8.13
2023-05-01T00:30:37.595Z,8.05
2023-05-01T00:31:41.613Z,8.35
2023-05-01T00:32:43.454Z,7.45
2023-05-01T00:33:46.330Z,8.32
2023-05-01T00:34:48.332Z,7.53
2023-05-01T00:35:51.440Z,7.78
2023-05-01T00:36:53.246Z,7.35
2023-05-01T00:37:55.968Z,7.82
2023-05-01T00:38:57.728Z,7.90
2023-05-01T00:40:00.505Z,7.55
2023-05-01T00:41:02.306Z,7.78
2023-05-01T00:42:06.685Z,8.07
2023-05-01T00:43:08.469Z,7.57
2023-05-01T00:44:11.288Z,8.05
2023-05-01T00:45:14.287Z,8.43
2023-05-01T00:46:18.348Z,8.95
2023-05-01T00:47:20.240Z,8.00
2023-05-01T00:48:23.284Z,7.90
2023-05-01T00:49:25.362Z,8.88
2023-05-01T00:50:28.082Z,8.07
2023-05-01T00:51:30.036Z,7.32
2023-05-01T00:52:32.999Z,9.30
2023-05-01T00:53:34.946Z,8.30
2023-05-01T00:54:37.815Z,8.63
2023-05-01T00:55:42.104Z,8.65
2023-05-01T00:56:44.930Z,8.85
2023-05-01T00:57:48.140Z,9.73
2023-05-01T00:58:52.072Z,9.85
2023-05-01T00:59:54.154Z,8.98
2023-05-01T01:00:57.188Z,8.40
2023-05-01T01:01:59.067Z,10.32
2023-05-01T01:03:02.426Z,8.73
2023-05-01T01:04:05.667Z,7.30
2023-05-01T01:05:07.878Z,8.20
2023-05-01T01:06:17.020Z,7.80
2023-05-01T01:07:22.022Z,7.53
2023-05-01T01:08:31.944Z,8.82
2023-05-01T01:09:40.189Z,8.57
2023-05-01T01:10:48.402Z,8.93
2023-05-01T01:11:56.225Z,10.80
2023-05-01T01:13:05.586Z,10.02
2023-05-01T01:14:12.037Z,15.48
2023-05-01T01:15:20.076Z,19.58
2023-05-01T01:16:28.396Z,23.63
2023-05-01T01:17:34.341Z,21.77
2023-05-01T01:18:40.603Z,21.25
2023-05-01T01:20:10.919Z,24.05
2023-05-01T01:21:17.661Z,18.05
2023-05-01T01:22:23.882Z,15.30
2023-05-01T01:24:26.961Z,14.52
2023-05-01T01:26:04.748Z,15.95
2023-05-01T01:27:24.358Z,14.38
2023-05-01T01:28:56.607Z,12.65
2023-05-01T01:30:15.638Z,16.90
2023-05-01T01:31:19.439Z,16.73
2023-05-01T01:32:40.009Z,15.35
2023-05-01T01:34:01.791Z,15.57
2023-05-01T01:35:06.745Z,14.77
2023-05-01T01:36:17.438Z,15.10
2023-05-01T01:37:22.135Z,16.23
2023-05-01T01:38:30.307Z,18.60
2023-05-01T01:39:40.459Z,16.85
2023-05-01T01:40:46.696Z,15.95
2023-05-01T01:41:52.469Z,15.63
2023-05-01T01:42:59.172Z,13.73
2023-05-01T01:44:05.341Z,13.55
2023-05-01T01:45:12.515Z,14.88
2023-05-01T01:46:17.684Z,11.63
2023-05-01T01:47:21.274Z,12.30
2023-05-01T01:48:26.545Z,10.00
2023-05-01T01:49:31.336Z,11.20
2023-05-01T01:50:34.839Z,9.82
2023-05-01T01:51:39.435Z,10.45
2023-05-01T01:52:42.446Z,10.23
2023-05-01T01:53:47.719Z,9.90
2023-05-01T01:54:52.308Z,9.95
2023-05-01T01:55:55.955Z,10.63
2023-05-01T01:56:59.746Z,9.38
2023-05-01T01:58:04.069Z,9.52
2023-05-01T01:59:07.259Z,10.05
2023-05-01T02:00:11.963Z,9.65
2023-05-01T02:01:20.803Z,9.10
2023-05-01T02:02:24.406Z,8.52
2023-05-01T02:03:26.799Z,9.77
2023-05-01T02:04:31.926Z,8.93
2023-05-01T02:05:34.503Z,9.00
2023-05-01T02:06:37.562Z,9.73
2023-05-01T02:07:40.805Z,9.98
2023-05-01T02:08:44.722Z,8.93
2023-05-01T02:09:46.949Z,8.93
2023-05-01T02:10:50.943Z,8.52
2023-05-01T02:11:53.889Z,8.00
2023-05-01T02:12:59.196Z,8.98
2023-05-01T02:14:01.429Z,9.70
2023-05-01T02:15:06.496Z,9.13
2023-05-01T02:16:08.706Z,9.30
2023-05-01T02:17:11.725Z,8.98
2023-05-01T02:18:14.857Z,8.98
2023-05-01T02:19:18.233Z,9.38
2023-05-01T02:20:22.336Z,9.23
2023-05-01T02:21:26.282Z,8.80
2023-05-01T02:22:28.721Z,9.35
2023-05-01T02:23:33.469Z,9.02
2023-05-01T02:24:35.930Z,8.15
2023-05-01T02:25:40.264Z,8.55
2023-05-01T02:26:43.752Z,9.15
2023-05-01T02:27:49.349Z,8.82
2023-05-01T02:28:51.138Z,9.38
2023-05-01T02:29:54.154Z,9.48
2023-05-01T02:30:57.239Z,8.32
2023-05-01T02:32:00.944Z,8.57
2023-05-01T02:33:03.092Z,9.43
2023-05-01T02:34:05.880Z,10.20
2023-05-01T02:35:08.144Z,9.70
2023-05-01T02:36:13.276Z,10.48
2023-05-01T02:37:16.495Z,9.70
2023-05-01T02:38:19.758Z,8.70
2023-05-01T02:39:23.106Z,10.52
2023-05-01T02:40:25.340Z,9.98
2023-05-01T02:41:28.702Z,8.55
2023-05-01T02:42:31.734Z,9.40
2023-05-01T02:43:34.830Z,9.10
2023-05-01T02:44:41.240Z,9.25
2023-05-01T02:45:46.120Z,10.40
2023-05-01T02:46:50.223Z,9.43
2023-05-01T02:47:56.582Z,10.20
2023-05-01T02:49:01.498Z,9.88
2023-05-01T02:50:04.522Z,10.13
2023-05-01T02:51:08.337Z,9.98
2023-05-01T02:52:11.814Z,11.65
2023-05-01T02:53:15.632Z,11.13
2023-05-01T02:54:45.394Z,10.40
2023-05-01T02:55:48.245Z,11.82
2023-05-01T02:56:51.068Z,11.63
2023-05-01T02:57:53.014Z,11.52
2023-05-01T02:58:56.190Z,10.85
2023-05-01T02:59:58.150Z,11.60
2023-05-01T03:01:01.209Z,10.15
2023-05-01T03:02:03.201Z,10.00
2023-05-01T03:03:06.061Z,10.90
2023-05-01T03:04:08.192Z,9.18
2023-05-01T03:05:11.518Z,9.10
2023-05-01T03:06:14.212Z,9.45
2023-05-01T03:07:18.434Z,9.80
2023-05-01T03:08:21.259Z,9.43
2023-05-01T03:09:24.075Z,9.15
2023-05-01T03:10:25.853Z,9.52
2023-05-01T03:11:28.605Z,10.75
2023-05-01T03:12:30.542Z,10.27
2023-05-01T03:13:33.564Z,11.27
2023-05-01T03:14:35.484Z,12.68
2023-05-01T03:15:38.418Z,11.90
2023-05-01T03:16:40.481Z,11.93
2023-05-01T03:17:43.343Z,10.60
2023-05-01T03:18:45.183Z,12.18
2023-05-01T03:19:49.533Z,11.45
2023-05-01T03:20:52.439Z,11.38
2023-05-01T03:21:55.411Z,10.55
2023-05-01T03:22:59.359Z,10.88
2023-05-01T03:24:02.298Z,10.00
2023-05-01T03:25:06.387Z,10.93
2023-05-01T03:26:09.224Z,11.20
2023-05-01T03:27:11.513Z,9.88
2023-05-01T03:28:14.318Z,9.32
2023-05-01T03:29:16.163Z,10.35
2023-05-01T03:30:20.380Z,10.90
2023-05-01T03:31:22.553Z,9.63
2023-05-01T03:32:25.561Z,10.82
2023-05-01T03:33:29.223Z,10.30
2023-05-01T03:34:32.027Z,10.30
2023-05-01T03:35:33.919Z,10.48
2023-05-01T03:36:37.223Z,11.20
2023-05-01T03:37:39.553Z,10.95
2023-05-01T03:38:43.814Z,10.10
2023-05-01T03:39:46.564Z,10.93
2023-05-01T03:41:27.573Z,10.32
2023-05-01T03:42:48.535Z,10.48
2023-05-01T03:43:56.423Z,10.70
2023-05-01T03:45:08.257Z,12.00
2023-05-01T03:46:11.423Z,11.55
2023-05-01T03:47:13.196Z,13.18
2023-05-01T03:48:17.540Z,12.35
2023-05-01T03:49:19.370Z,11.18
2023-05-01T03:50:24.235Z,11.98
2023-05-01T03:51:27.341Z,11.50
2023-05-01T03:52:31.570Z,13.05
2023-05-01T03:53:33.672Z,12.77
2023-05-01T03:54:41.541Z,12.18
2023-05-01T03:56:09.898Z,12.77
2023-05-01T03:57:11.805Z,13.32
2023-05-01T03:58:17.941Z,13.93
2023-05-01T03:59:19.688Z,13.63
2023-05-01T04:00:22.470Z,13.50
2023-05-01T04:01:24.312Z,14.73
2023-05-01T04:02:28.629Z,14.35
2023-05-01T04:03:30.568Z,15.23
2023-05-01T04:04:33.895Z,13.85
2023-05-01T04:05:36.005Z,13.50
2023-05-01T04:06:39.378Z,13.13
2023-05-01T04:07:41.938Z,12.90
2023-05-01T04:08:44.723Z,14.05
2023-05-01T04:09:48.385Z,12.43
2023-05-01T04:10:51.585Z,12.35
2023-05-01T04:11:53.421Z,13.15
2023-05-01T04:12:56.150Z,15.43
2023-05-01T04:13:57.956Z,13.85
2023-05-01T04:15:01.056Z,15.68
2023-05-01T04:16:03.065Z,17.25
2023-05-01T04:17:06.141Z,18.67
2023-05-01T04:18:11.292Z,26.55
2023-05-01T04:19:14.214Z,23.02
2023-05-01T04:20:19.461Z,17.58
2023-05-01T04:21:22.749Z,21.60
2023-05-01T04:22:26.982Z,19.75
2023-05-01T04:23:29.829Z,20.42
2023-05-01T04:24:33.931Z,20.30
2023-05-01T04:25:38.188Z,18.80
2023-05-01T04:26:46.089Z,17.50
2023-05-01T04:27:48.852Z,19.20
2023-05-01T04:28:50.899Z,19.50
2023-05-01T04:29:58.524Z,20.63
2023-05-01T04:31:00.938Z,19.80
2023-05-01T04:32:03.828Z,20.52
2023-05-01T04:33:11.301Z,20.25
2023-05-01T04:34:14.988Z,20.52
2023-05-01T04:35:16.738Z,21.00
2023-05-01T04:36:21.013Z,19.77
2023-05-01T04:37:23.010Z,18.45
2023-05-01T04:38:25.768Z,18.63
2023-05-01T04:39:30.287Z,17.98
2023-05-01T04:40:33.916Z,16.73
2023-05-01T04:41:37.255Z,16.88
2023-05-01T04:42:41.287Z,16.92
2023-05-01T04:43:46.792Z,18.77
2023-05-01T04:44:53.685Z,21.15
2023-05-01T04:45:56.050Z,19.67
2023-05-01T04:46:58.950Z,20.17
2023-05-01T04:48:00.838Z,18.80
2023-05-01T04:49:03.647Z,19.55
2023-05-01T04:50:06.522Z,18.25
2023-05-01T04:51:09.639Z,17.27
2023-05-01T04:52:12.491Z,18.17
2023-05-01T04:53:41.190Z,17.00
2023-05-01T04:54:53.047Z,14.98
2023-05-01T04:55:57.506Z,15.15
2023-05-01T04:57:03.232Z,13.45
2023-05-01T04:58:06.196Z,11.30
2023-05-01T04:59:10.169Z,10.20
2023-05-01T05:00:13.856Z,8.90
2023-05-01T05:01:25.152Z,9.32
2023-05-01T05:02:28.509Z,8.07
2023-05-01T05:03:31.026Z,8.82
2023-05-01T05:04:34.373Z,8.25
2023-05-01T05:05:36.271Z,7.55
2023-05-01T05:06:42.676Z,8.05
2023-05-01T05:07:58.129Z,8.25
2023-05-01T05:09:04.879Z,7.45
2023-05-01T05:10:08.517Z,7.63
2023-05-01T05:11:11.099Z,7.32
2023-05-01T05:12:26.003Z,7.28
2023-05-01T05:13:28.256Z,7.00
2023-05-01T05:14:36.858Z,7.50
2023-05-01T05:15:38.707Z,7.43
2023-05-01T05:16:43.247Z,7.88
2023-05-01T05:17:45.566Z,7.47
2023-05-01T05:18:48.991Z,6.68
2023-05-01T05:19:51.575Z,6.95
2023-05-01T05:20:54.459Z,7.05
2023-05-01T05:21:56.760Z,7.18
2023-05-01T05:22:59.561Z,6.68
2023-05-01T05:24:01.352Z,6.82
2023-05-01T05:25:06.792Z,6.43
2023-05-01T05:26:08.537Z,5.97
2023-05-01T05:27:11.328Z,5.80
2023-05-01T05:28:14.491Z,6.13
2023-05-01T05:29:18.550Z,6.05
2023-05-01T05:30:20.334Z,6.13
2023-05-01T05:31:23.570Z,5.32
2023-05-01T05:32:25.562Z,5.47
2023-05-01T05:33:29.074Z,6.10
2023-05-01T05:34:31.180Z,5.25
2023-05-01T05:35:34.331Z,4.95
2023-05-01T05:36:37.830Z,4.97
2023-05-01T05:37:40.093Z,4.65
2023-05-01T05:38:43.188Z,5.40
2023-05-01T05:39:48.968Z,5.32
2023-05-01T05:40:51.814Z,5.47
2023-05-01T05:41:55.358Z,5.28
2023-05-01T05:42:57.388Z,5.13
2023-05-01T05:44:03.985Z,5.57
2023-05-01T05:45:07.704Z,5.00
2023-05-01T05:46:11.465Z,5.25
2023-05-01T05:47:14.676Z,4.57
2023-05-01T05:48:17.627Z,5.05
2023-05-01T05:49:19.390Z,4.32
2023-05-01T05:50:22.379Z,5.47
2023-05-01T05:51:25.131Z,4.70
2023-05-01T05:52:28.000Z,4.88
2023-05-01T05:53:32.189Z,4.45
2023-05-01T05:54:34.886Z,4.32
2023-05-01T05:55:37.625Z,4.65
2023-05-01T05:56:41.495Z,4.75
2023-05-01T05:57:44.580Z,4.03
2023-05-01T05:58:46.369Z,4.15
2023-05-01T05:59:50.684Z,4.63
2023-05-01T06:00:56.512Z,4.00
2023-05-01T06:01:59.592Z,4.82
2023-05-01T06:03:02.564Z,4.10
2023-05-01T06:04:06.788Z,4.22
2023-05-01T06:05:12.441Z,4.20
2023-05-01T06:06:15.431Z,3.13
2023-05-01T06:07:17.469Z,3.75
2023-05-01T06:08:22.406Z,4.20
2023-05-01T06:09:24.276Z,3.67
2023-05-01T06:10:27.022Z,3.10
2023-05-01T06:11:28.842Z,2.83
2023-05-01T06:12:34.127Z,3.17
2023-05-01T06:13:39.087Z,3.53
2023-05-01T06:14:41.172Z,2.83
2023-05-01T06:15:45.478Z,2.97
2023-05-01T06:16:47.512Z,2.97
2023-05-01T06:17:50.828Z,3.00
2023-05-01T06:18:56.001Z,3.13
2023-05-01T06:19:59.118Z,2.83
2023-05-01T06:21:01.082Z,3.17
2023-05-01T06:22:04.239Z,2.97
2023-05-01T06:23:10.714Z,2.95
2023-05-01T06:24:33.929Z,2.80
2023-05-01T06:25:37.373Z,3.05
2023-05-01T06:26:40.090Z,2.85
2023-05-01T06:27:42.039Z,2.97
2023-05-01T06:28:44.942Z,3.08
2023-05-01T06:29:46.855Z,2.67
2023-05-01T06:30:50.934Z,2.60
2023-05-01T06:31:54.440Z,2.67
2023-05-01T06:32:57.343Z,3.03
2023-05-01T06:33:59.766Z,2.80
2023-05-01T06:35:12.607Z,2.42
2023-05-01T06:36:14.410Z,2.65
2023-05-01T06:37:17.197Z,2.55
2023-05-01T06:38:19.065Z,2.85
2023-05-01T06:39:21.827Z,2.35
2023-05-01T06:40:23.762Z,2.47
2023-05-01T06:41:27.083Z,3.33
2023-05-01T06:42:28.902Z,2.40
2023-05-01T06:43:37.548Z,2.55
2023-05-01T06:44:39.638Z,2.63
2023-05-01T06:45:42.792Z,2.38
2023-05-01T06:46:46.033Z,2.03
2023-05-01T06:47:49.082Z,2.63
2023-05-01T06:48:50.869Z,2.40
2023-05-01T06:49:53.703Z,2.63
2023-05-01T06:50:56.096Z,2.90
2023-05-01T06:51:58.816Z,2.60
2023-05-01T06:53:02.585Z,2.60
2023-05-01T06:54:06.453Z,2.45
2023-05-01T06:55:09.132Z,2.30
2023-05-01T06:56:11.964Z,2.33
2023-05-01T06:57:13.829Z,2.33
2023-05-01T06:59:25.130Z,2.70
2023-05-01T07:00:27.964Z,2.50
2023-05-01T07:01:30.160Z,2.20
2023-05-01T07:02:36.853Z,2.30
2023-05-01T07:03:38.885Z,2.27
2023-05-01T07:04:41.824Z,1.97
2023-05-01T07:05:43.625Z,1.90
2023-05-01T07:06:46.575Z,2.20
2023-05-01T07:07:58.049Z,2.37
2023-05-01T07:09:03.859Z,2.53
2023-05-01T07:10:06.363Z,2.83
2023-05-01T07:11:09.102Z,2.17
2023-05-01T07:12:10.923Z,2.20
2023-05-01T07:13:13.715Z,2.30
2023-05-01T07:14:15.823Z,2.57
2023-05-01T07:15:18.750Z,2.60
2023-05-01T07:16:21.011Z,2.13
2023-05-01T07:17:23.847Z,2.50
2023-05-01T07:18:26.970Z,2.13
2023-05-01T07:19:29.835Z,2.20
2023-05-01T07:20:31.697Z,2.07
2023-05-01T07:21:34.795Z,2.00
2023-05-01T07:22:38.950Z,2.07
2023-05-01T07:23:41.722Z,2.83
2023-05-01T07:24:43.491Z,2.47
2023-05-01T07:25:46.352Z,2.00
2023-05-01T07:26:48.078Z,2.10
2023-05-01T07:27:50.824Z,2.10
2023-05-01T07:28:52.730Z,2.07
2023-05-01T07:29:56.846Z,1.87
2023-05-01T07:30:58.952Z,2.10
2023-05-01T07:32:01.732Z,2.30
2023-05-01T07:33:05.837Z,2.30
2023-05-01T07:34:10.183Z,2.23
2023-05-01T07:35:11.994Z,2.10
2023-05-01T07:36:14.763Z,2.50
2023-05-01T07:37:16.480Z,2.40
2023-05-01T07:38:19.310Z,2.40
2023-05-01T07:39:21.210Z,2.47
2023-05-01T07:40:23.941Z,1.87
2023-05-01T07:41:26.719Z,1.97
2023-05-01T07:42:28.457Z,2.67
2023-05-01T07:43:31.214Z,2.30
2023-05-01T07:44:33.242Z,2.27
2023-05-01T07:45:36.014Z,2.23
2023-05-01T07:46:39.300Z,2.60
2023-05-01T07:47:41.148Z,2.77
2023-05-01T07:48:44.391Z,2.20
2023-05-01T07:49:48.432Z,2.43
2023-05-01T07:50:50.263Z,2.30
2023-05-01T07:51:52.992Z,2.30
2023-05-01T07:52:54.706Z,2.70
2023-05-01T07:53:57.490Z,2.47
2023-05-01T07:55:00.221Z,2.33
2023-05-01T07:56:06.866Z,2.53
2023-05-01T07:57:09.625Z,2.20
2023-05-01T07:58:11.409Z,2.60
2023-05-01T07:59:15.076Z,2.07
2023-05-01T08:00:17.874Z,2.43
2023-05-01T08:01:21.003Z,2.50
2023-05-01T08:02:22.842Z,2.30
2023-05-01T08:03:25.815Z,2.33
2023-05-01T08:04:29.427Z,2.20
2023-05-01T08:05:33.626Z,2.30
2023-05-01T08:06:36.431Z,2.50
2023-05-01T08:07:38.221Z,2.43
2023-05-01T08:08:41.039Z,2.30
2023-05-01T08:09:43.070Z,2.60
2023-05-01T08:10:45.928Z,2.00
2023-05-01T08:11:48.638Z,2.10
2023-05-01T08:12:50.575Z,2.30
2023-05-01T08:13:53.301Z,2.10
2023-05-01T08:14:55.137Z,2.20
2023-05-01T08:16:02.027Z,2.33
2023-05-01T08:17:03.866Z,2.17
2023-05-01T08:18:06.890Z,2.30
2023-05-01T08:19:08.782Z,2.50
2023-05-01T08:20:13.421Z,2.43
2023-05-01T08:21:17.480Z,2.30
2023-05-01T08:22:19.309Z,2.33
2023-05-01T08:23:22.043Z,1.90
2023-05-01T08:24:23.911Z,2.60
2023-05-01T08:25:26.879Z,2.27
2023-05-01T08:26:29.617Z,2.67
2023-05-01T08:27:31.510Z,2.40
2023-05-01T08:28:36.073Z,2.37
2023-05-01T08:29:37.798Z,2.80
2023-05-01T08:30:40.544Z,2.30
2023-05-01T08:31:43.696Z,2.57
2023-05-01T08:32:46.495Z,2.63
2023-05-01T08:33:48.270Z,2.57
2023-05-01T08:34:51.038Z,2.53
2023-05-01T08:35:54.070Z,2.90
2023-05-01T08:36:57.167Z,2.90
2023-05-01T08:38:01.608Z,2.20
2023-05-01T08:39:03.769Z,2.30
2023-05-01T08:40:08.965Z,2.33
2023-05-01T08:41:17.076Z,4.03
2023-05-01T08:42:18.851Z,2.93
2023-05-01T08:43:21.751Z,2.60
2023-05-01T08:44:24.594Z,2.43
2023-05-01T08:45:28.374Z,2.93
2023-05-01T08:46:36.623Z,2.30
2023-05-01T08:47:41.093Z,2.50
2023-05-01T08:48:44.121Z,2.07
2023-05-01T08:49:47.160Z,2.80
2023-05-01T08:50:50.619Z,2.37
2023-05-01T08:51:54.126Z,2.40
2023-05-01T08:52:58.556Z,3.00
2023-05-01T08:54:01.917Z,2.73
2023-05-01T08:55:05.369Z,2.50
2023-05-01T08:56:08.399Z,2.33
2023-05-01T08:57:12.246Z,2.77
2023-05-01T08:58:15.750Z,2.70
2023-05-01T08:59:18.540Z,2.80
2023-05-01T09:00:22.396Z,2.80
2023-05-01T09:01:25.217Z,2.57
2023-05-01T09:02:28.692Z,2.53
2023-05-01T09:03:32.066Z,2.50
2023-05-01T09:04:37.039Z,2.30
2023-05-01T09:05:39.030Z,2.83
2023-05-01T09:06:44.815Z,2.50
2023-05-01T09:07:47.423Z,2.10
2023-05-01T09:08:51.481Z,2.57
2023-05-01T09:09:54.378Z,2.77
2023-05-01T09:10:57.547Z,2.60
2023-05-01T09:12:02.968Z,2.80
2023-05-01T09:13:07.114Z,2.47
2023-05-01T09:14:09.259Z,2.87
2023-05-01T09:15:12.661Z,2.50
2023-05-01T09:16:14.634Z,2.57
2023-05-01T09:17:17.449Z,2.67
2023-05-01T09:18:19.343Z,2.17
2023-05-01T09:19:22.328Z,2.57
2023-05-01T09:20:24.527Z,2.43
2023-05-01T09:21:28.420Z,2.30
2023-05-01T09:22:30.673Z,2.63
2023-05-01T09:23:33.505Z,2.60
2023-05-01T09:24:36.863Z,2.67
2023-05-01T09:25:39.623Z,2.60
2023-05-01T09:26:41.939Z,2.33
2023-05-01T09:27:45.507Z,2.57
2023-05-01T09:28:48.257Z,2.50
2023-05-01T09:29:51.334Z,2.50
2023-05-01T09:30:53.061Z,2.27
2023-05-01T09:31:56.643Z,2.20
2023-05-01T09:33:08.480Z,2.20
2023-05-01T09:34:11.306Z,2.33
2023-05-01T09:35:14.907Z,2.33
2023-05-01T09:36:18.117Z,2.40
2023-05-01T09:37:29.264Z,2.40
2023-05-01T09:38:32.427Z,2.60
2023-05-01T09:39:34.257Z,2.70
2023-05-01T09:40:38.374Z,2.77
2023-05-01T09:41:52.015Z,2.47
2023-05-01T09:42:56.062Z,2.53
2023-05-01T09:43:58.961Z,2.07
2023-05-01T09:45:01.736Z,2.27
2023-05-01T09:46:06.551Z,2.47
2023-05-01T09:47:08.361Z,2.40
2023-05-01T09:48:12.243Z,2.33
2023-05-01T09:49:15.014Z,2.00
2023-05-01T09:50:29.337Z,2.10
2023-05-01T09:51:33.109Z,2.33
2023-05-01T09:52:34.975Z,2.60
2023-05-01T09:53:41.940Z,2.20
2023-05-01T09:54:44.374Z,2.50
2023-05-01T09:56:01.303Z,2.57
2023-05-01T09:57:04.051Z,2.23
2023-05-01T09:58:06.528Z,2.47
2023-05-01T09:59:17.312Z,2.33
2023-05-01T10:00:21.823Z,2.47
2023-05-01T10:01:41.002Z,2.63
2023-05-01T10:02:45.520Z,2.20
2023-05-01T10:03:54.890Z,2.50
2023-05-01T10:04:58.450Z,2.60
2023-05-01T10:06:02.871Z,2.10
2023-05-01T10:07:13.926Z,2.40
2023-05-01T10:08:15.869Z,2.00
2023-05-01T10:09:28.726Z,2.23
2023-05-01T10:10:31.683Z,2.20
2023-05-01T10:11:48.243Z,2.03
2023-05-01T10:12:51.398Z,2.80
2023-05-01T10:14:07.785Z,2.37
2023-05-01T10:15:24.095Z,2.20
2023-05-01T10:16:31.809Z,2.00
2023-05-01T10:17:35.156Z,1.90
2023-05-01T10:18:37.816Z,2.20
2023-05-01T10:19:40.570Z,2.50
2023-05-01T10:20:43.539Z,3.20
2023-05-01T10:21:45.527Z,2.27
2023-05-01T10:22:49.024Z,2.17
2023-05-01T10:23:52.163Z,2.17
2023-05-01T10:24:55.717Z,2.37
2023-05-01T10:25:58.444Z,2.20
2023-05-01T10:27:04.711Z,2.00
2023-05-01T10:28:06.635Z,2.03
2023-05-01T10:29:09.928Z,2.77
2023-05-01T10:30:12.640Z,2.30
2023-05-01T10:31:15.811Z,2.40
2023-05-01T10:32:18.604Z,2.17
2023-05-01T10:33:20.457Z,1.93
2023-05-01T10:34:26.227Z,2.10
2023-05-01T10:35:33.218Z,2.30
2023-05-01T10:36:39.208Z,2.07
2023-05-01T10:37:46.815Z,2.10
2023-05-01T10:38:49.614Z,1.83
2023-05-01T10:39:51.423Z,2.27
2023-05-01T10:40:54.408Z,2.00
2023-05-01T10:42:11.447Z,2.07
2023-05-01T10:43:14.127Z,2.30
2023-05-01T10:44:24.657Z,2.17
2023-05-01T10:45:30.115Z,2.27
2023-05-01T10:46:32.929Z,2.17
2023-05-01T10:47:48.865Z,2.20
2023-05-01T10:48:57.420Z,2.20
2023-05-01T10:50:08.002Z,2.03
2023-05-01T10:51:10.882Z,1.90
2023-05-01T10:52:14.117Z,2.10
2023-05-01T10:53:19.264Z,2.10
2023-05-01T10:54:28.360Z,2.10
2023-05-01T10:55:33.893Z,2.03
2023-05-01T10:56:46.704Z,1.90
2023-05-01T10:57:49.871Z,1.70
2023-05-01T10:58:57.055Z,1.73
2023-05-01T11:00:12.812Z,1.93
2023-05-01T11:01:33.207Z,1.90
2023-05-01T11:02:36.212Z,1.70
2023-05-01T11:03:40.150Z,1.77
2023-05-01T11:04:53.522Z,1.83
2023-05-01T11:06:05.455Z,2.07
2023-05-01T11:07:19.002Z,1.67
2023-05-01T11:08:30.772Z,2.10
2023-05-01T11:09:38.012Z,1.80
2023-05-01T11:10:39.770Z,1.77
2023-05-01T11:11:50.275Z,1.60
2023-05-01T11:12:54.575Z,1.80
2023-05-01T11:13:57.949Z,2.50
2023-05-01T11:15:08.332Z,1.73
2023-05-01T11:16:50.918Z,2.30
2023-05-01T11:17:52.930Z,1.77
2023-05-01T11:18:55.735Z,2.17
2023-05-01T11:19:58.055Z,1.90
2023-05-01T11:21:02.137Z,1.80
2023-05-01T11:22:12.306Z,2.03
2023-05-01T11:23:21.969Z,1.83
2023-05-01T11:24:31.616Z,2.00
2023-05-01T11:25:34.308Z,1.70
2023-05-01T11:26:39.783Z,1.80
2023-05-01T11:27:47.548Z,1.80
2023-05-01T11:28:55.364Z,1.70
2023-05-01T11:29:59.085Z,1.53
2023-05-01T11:31:02.478Z,1.53
2023-05-01T11:32:04.618Z,1.70
2023-05-01T11:33:10.543Z,1.90
2023-05-01T11:34:14.039Z,1.83
2023-05-01T11:35:17.504Z,1.67
2023-05-01T11:36:20.885Z,2.00
2023-05-01T11:37:41.185Z,1.73
2023-05-01T11:38:50.799Z,2.20
2023-05-01T11:39:55.051Z,2.03
2023-05-01T11:41:00.250Z,1.70
2023-05-01T11:42:09.486Z,2.30
2023-05-01T11:43:12.573Z,1.80
2023-05-01T11:44:18.425Z,1.83
2023-05-01T11:45:20.346Z,2.00
2023-05-01T11:46:27.750Z,2.10
2023-05-01T11:47:32.433Z,1.93
2023-05-01T11:48:35.293Z,1.70
2023-05-01T11:49:37.248Z,1.80
2023-05-01T11:50:40.191Z,1.60
2023-05-01T11:51:42.962Z,1.77
2023-05-01T11:52:46.564Z,1.90
2023-05-01T11:54:01.663Z,2.00
2023-05-01T11:55:04.844Z,1.70
2023-05-01T11:56:26.717Z,1.80
2023-05-01T11:57:29.307Z,1.70
2023-05-01T11:58:33.827Z,1.57
2023-05-01T11:59:36.951Z,1.80
2023-05-01T12:00:41.689Z,1.97
2023-05-01T12:01:45.457Z,1.80
2023-05-01T12:02:57.476Z,1.77
2023-05-01T12:04:00.537Z,1.50
2023-05-01T12:05:15.606Z,1.50
2023-05-01T12:06:18.420Z,1.80
2023-05-01T12:07:21.241Z,1.77
2023-05-01T12:08:24.314Z,1.70
2023-05-01T12:09:26.935Z,1.80
2023-05-01T12:10:29.791Z,1.53
2023-05-01T12:11:32.737Z,1.80
2023-05-01T12:12:34.602Z,1.70
2023-05-01T12:13:37.520Z,1.60
2023-05-01T12:14:42.130Z,1.80
2023-05-01T12:15:45.280Z,1.60
2023-05-01T12:16:48.543Z,1.87
2023-05-01T12:17:50.439Z,1.70
2023-05-01T12:18:53.378Z,1.80
2023-05-01T12:19:55.211Z,1.53
2023-05-01T12:20:57.937Z,1.60
2023-05-01T12:22:06.759Z,1.67
2023-05-01T12:23:11.472Z,1.67
2023-05-01T12:24:16.464Z,1.60
2023-05-01T12:25:19.758Z,1.90
2023-05-01T12:26:25.175Z,1.80
2023-05-01T12:27:26.978Z,2.03
2023-05-01T12:28:30.268Z,1.90
2023-05-01T12:29:41.295Z,4.50
2023-05-01T12:30:45.156Z,4.03
2023-05-01T12:31:48.286Z,1.87
2023-05-01T12:32:52.155Z,1.70
2023-05-01T12:33:55.248Z,2.00
2023-05-01T12:34:58.161Z,2.03
2023-05-01T12:36:10.485Z,1.73
2023-05-01T12:37:13.209Z,1.80
2023-05-01T12:38:16.013Z,2.20
2023-05-01T12:39:18.857Z,1.67
2023-05-01T12:40:22.928Z,2.00
2023-05-01T12:41:38.615Z,1.80
2023-05-01T12:42:40.580Z,1.60
2023-05-01T12:43:44.411Z,2.20
2023-05-01T12:44:47.759Z,2.00
2023-05-01T12:45:53.820Z,1.80
2023-05-01T12:46:56.809Z,1.70
2023-05-01T12:47:59.831Z,1.87
2023-05-01T12:49:01.747Z,1.80
2023-05-01T12:50:05.122Z,1.80
2023-05-01T12:51:07.757Z,1.80
2023-05-01T12:52:10.855Z,1.70
2023-05-01T12:53:13.872Z,1.70
2023-05-01T12:54:20.653Z,1.57
2023-05-01T12:55:23.711Z,1.87
2023-05-01T12:56:25.723Z,1.80
2023-05-01T12:57:28.490Z,1.80
2023-05-01T12:58:36.819Z,1.53
2023-05-01T12:59:40.033Z,1.70
2023-05-01T13:00:45.962Z,1.83
2023-05-01T13:01:48.027Z,2.00
2023-05-01T13:02:50.912Z,1.93
2023-05-01T13:03:53.177Z,1.60
2023-05-01T13:05:06.848Z,1.80
2023-05-01T13:06:10.036Z,1.83
2023-05-01T13:07:14.832Z,1.60
2023-05-01T13:08:25.903Z,2.03
2023-05-01T13:09:30.918Z,2.13
2023-05-01T13:10:32.900Z,2.00
2023-05-01T13:11:35.899Z,2.00
2023-05-01T13:12:44.860Z,1.60
2023-05-01T13:13:48.400Z,1.80
2023-05-01T13:14:50.825Z,1.90
2023-05-01T13:15:55.023Z,2.00
2023-05-01T13:16:57.014Z,1.90
2023-05-01T13:18:05.434Z,2.53
2023-05-01T13:19:08.485Z,1.90
2023-05-01T13:20:12.452Z,2.03
2023-05-01T13:21:16.891Z,1.90
2023-05-01T13:22:18.748Z,2.00
2023-05-01T13:23:21.594Z,1.93
2023-05-01T13:24:24.189Z,2.00
2023-05-01T13:25:27.238Z,1.90
2023-05-01T13:26:31.384Z,2.03
2023-05-01T13:27:34.356Z,2.00
2023-05-01T13:28:41.063Z,1.90
2023-05-01T13:29:45.554Z,2.00
2023-05-01T13:30:47.460Z,2.10
2023-05-01T13:31:51.578Z,2.30
2023-05-01T13:32:54.657Z,2.10
2023-05-01T13:33:59.565Z,2.40
2023-05-01T13:35:01.922Z,2.03
2023-05-01T13:36:11.239Z,2.00
2023-05-01T13:37:22.346Z,1.80
2023-05-01T13:38:25.037Z,1.93
2023-05-01T13:39:27.858Z,2.03
2023-05-01T13:40:29.754Z,2.23
2023-05-01T13:41:32.495Z,1.60
2023-05-01T13:42:34.430Z,1.90
2023-05-01T13:43:37.704Z,2.23
2023-05-01T13:44:44.074Z,1.90
2023-05-01T13:45:47.316Z,2.10
2023-05-01T13:46:51.618Z,2.30
2023-05-01T13:47:55.217Z,2.20
2023-05-01T13:48:59.990Z,1.90
2023-05-01T13:50:03.286Z,2.00
2023-05-01T13:51:05.260Z,1.73
2023-05-01T13:52:08.015Z,1.90
2023-05-01T13:53:11.183Z,2.07
2023-05-01T13:54:14.103Z,1.90
2023-05-01T13:55:17.484Z,1.97
2023-05-01T13:56:20.318Z,2.37
2023-05-01T13:57:22.375Z,2.47
2023-05-01T13:58:25.127Z,2.00
2023-05-01T13:59:33.434Z,1.93
2023-05-01T14:00:35.373Z,1.93
2023-05-01T14:01:42.569Z,2.20
2023-05-01T14:02:48.697Z,2.43
2023-05-01T14:03:52.327Z,2.30
2023-05-01T14:04:54.458Z,1.77
2023-05-01T14:05:57.279Z,1.77
2023-05-01T14:07:01.267Z,1.90
2023-05-01T14:08:04.009Z,2.20
2023-05-01T14:09:05.757Z,2.60
2023-05-01T14:10:10.966Z,2.10
2023-05-01T14:11:14.501Z,2.50
2023-05-01T14:12:18.671Z,2.10
2023-05-01T14:13:21.455Z,2.47
2023-05-01T14:14:24.171Z,2.40
2023-05-01T14:15:26.035Z,2.17